Time;durP1;ratioP1;P1;durP2;ratioP2;P2;SDS_P1;SDS_P2;PMS_P1;PMS_P2;Temp;Humidity;BMP_temperature;BMP_pressure;BME280_temperature;BME280_humidity;BME280_pressure;Samples;Min_cycle;Max_cycle;Signal;HPM_P1;HPM_P2
2023/08/09 00:02:23;;;;;;;2.13;2.03;;;;;;;15.51;98.92;101014.38;3613260;39;20084;-64
2023/08/09 00:04:49;;;;;;;2.35;2.15;;;;;;;15.52;99.53;101004.41;3614180;39;20254;-64
2023/08/09 00:07:15;;;;;;;2.10;2.00;;;;;;;15.42;99.19;100988.03;3617639;39;20069;-64
2023/08/09 00:09:40;;;;;;;2.60;2.40;;;;;;;15.54;98.98;101006.00;3614220;39;20444;-64
2023/08/09 00:12:06;;;;;;;2.83;2.25;;;;;;;15.56;99.49;101005.88;3613696;39;20115;-64
2023/08/09 00:14:32;;;;;;;2.35;2.20;;;;;;;15.55;98.68;101010.44;3617451;39;20066;-64
2023/08/09 00:16:58;;;;;;;2.67;2.10;;;;;;;15.58;98.93;101008.47;3616340;39;20046;-64
2023/08/09 00:19:24;;;;;;;2.40;2.20;;;;;;;15.58;98.34;101011.19;3614250;39;20085;-64
2023/08/09 00:21:50;;;;;;;2.38;2.28;;;;;;;15.58;98.74;101009.34;3614405;39;20043;-64
2023/08/09 00:24:16;;;;;;;2.25;2.13;;;;;;;15.59;97.21;101010.19;3617575;39;20058;-64
2023/08/09 00:26:42;;;;;;;2.70;2.50;;;;;;;15.45;97.46;100998.63;3616404;39;20074;-64
2023/08/09 00:29:08;;;;;;;2.60;2.35;;;;;;;15.51;96.62;101014.38;3615311;39;20053;-64
2023/08/09 00:31:33;;;;;;;3.13;2.83;;;;;;;15.50;96.72;101007.22;3616524;39;20387;-64
2023/08/09 00:33:59;;;;;;;2.80;2.60;;;;;;;15.51;98.62;101018.94;3617968;39;20054;-64
2023/08/09 00:36:27;;;;;;;2.50;2.30;;;;;;;15.51;98.52;101008.97;3616080;39;20058;-65
2023/08/09 00:38:53;;;;;;;3.38;3.08;;;;;;;15.53;99.13;101015.09;3616741;39;20051;-65
2023/08/09 00:41:19;;;;;;;3.10;2.80;;;;;;;15.53;98.88;101006.97;3616334;39;20266;-64
2023/08/09 00:43:45;;;;;;;2.72;2.53;;;;;;;15.53;99.79;101006.13;3614717;39;20054;-65
2023/08/09 00:46:11;;;;;;;2.80;2.60;;;;;;;15.52;98.77;101007.13;3613469;39;20046;-64
2023/08/09 00:48:38;;;;;;;2.67;2.47;;;;;;;15.54;98.71;101019.56;3604976;39;20062;-65
2023/08/09 00:51:04;;;;;;;2.80;2.53;;;;;;;15.35;97.97;100975.06;3617084;39;20398;-64
2023/08/09 00:53:31;;;;;;;2.75;2.53;;;;;;;15.54;98.28;101008.72;3615433;39;20113;-65
2023/08/09 00:55:57;;;;;;;3.05;2.83;;;;;;;15.58;99.20;101013.91;3619560;39;20051;-64
2023/08/09 00:58:23;;;;;;;3.30;3.10;;;;;;;15.51;98.71;101008.97;3617682;39;20055;-65
2023/08/09 01:00:49;;;;;;;3.45;3.03;;;;;;;15.06;98.41;100933.09;3620323;39;20042;-65
2023/08/09 01:03:15;;;;;;;3.35;2.60;;;;;;;15.62;98.50;101031.63;3614720;39;20303;-65
2023/08/09 01:06:24;;;;;;;3.33;2.60;;;;;;;15.60;98.21;101033.59;3617589;39;20092;-65
2023/08/09 01:09:18;;;;;;;3.20;2.90;;;;;;;15.61;99.21;101025.34;3616293;39;20051;-65
2023/08/09 01:12:01;;;;;;;;;;;;;;;15.60;98.00;101023.59;3615277;39;20057;-65
2023/08/09 01:14:29;;;;;;;3.00;2.80;;;;;;;15.61;98.64;101035.34;3616689;39;20011;-65
2023/08/09 01:16:59;;;;;;;2.60;2.40;;;;;;;15.59;98.51;101034.56;3618031;39;20058;-65
2023/08/09 01:19:56;;;;;;;4.78;2.47;;;;;;;15.35;98.08;100997.63;3614835;39;20391;-65
2023/08/09 01:22:35;;;;;;;3.10;2.83;;;;;;;15.56;98.44;101028.41;3616481;39;20070;-65
2023/08/09 01:25:06;;;;;;;4.07;3.05;;;;;;;15.56;98.60;101025.69;3616244;39;20058;-65
2023/08/09 01:27:34;;;;;;;5.65;2.80;;;;;;;15.55;98.46;101023.97;3615984;39;20414;-65
2023/08/09 01:30:00;;;;;;;3.08;2.88;;;;;;;15.54;98.81;101024.13;3616414;39;20046;-65
2023/08/09 01:32:28;;;;;;;3.13;2.92;;;;;;;15.52;98.39;101026.06;3612370;39;20053;-65
2023/08/09 01:34:55;;;;;;;3.53;3.05;;;;;;;15.43;98.92;101014.13;3605729;39;20050;-65
2023/08/09 01:37:52;;;;;;;2.97;2.78;;;;;;;15.54;98.67;101043.94;3615652;39;20051;-65
2023/08/09 01:40:20;;;;;;;3.38;3.03;;;;;;;15.56;99.22;101035.69;3613088;39;20047;-65
2023/08/09 01:42:51;;;;;;;3.28;2.97;;;;;;;15.56;99.01;101039.25;3615503;39;20101;-65
2023/08/09 01:45:17;;;;;;;4.03;3.00;;;;;;;15.51;98.39;101035.19;3608067;39;20504;-65
2023/08/09 01:47:43;;;;;;;3.08;2.78;;;;;;;15.53;98.89;101039.50;3615590;39;21486;-65
2023/08/09 01:50:23;;;;;;;6.38;3.25;;;;;;;15.50;98.53;101045.16;3616826;39;20804;-65
2023/08/09 01:52:49;;;;;;;3.20;2.90;;;;;;;15.49;98.57;101048.84;3615443;39;20216;-64
2023/08/09 01:55:19;;;;;;;6.28;2.92;;;;;;;15.45;97.42;101057.34;3606282;39;20406;-64
2023/08/09 01:57:47;;;;;;;3.10;2.90;;;;;;;15.38;97.53;101046.16;3618783;39;20400;-65
2023/08/09 02:00:19;;;;;;;3.40;3.08;;;;;;;15.31;97.53;101043.03;3614674;39;20069;-65
2023/08/09 02:02:49;;;;;;;5.88;3.00;;;;;;;15.27;97.04;101044.25;3611660;39;20418;-65
2023/08/09 02:05:16;;;;;;;3.47;3.10;;;;;;;15.22;98.08;101054.59;3616240;39;20365;-65
2023/08/09 02:07:42;;;;;;;3.10;2.90;;;;;;;15.20;98.26;101053.00;3612879;39;20059;-65
2023/08/09 02:10:10;;;;;;;3.22;2.90;;;;;;;15.16;97.90;101056.91;3613726;39;20084;-65
2023/08/09 02:12:39;;;;;;;4.75;3.42;;;;;;;15.12;97.77;101055.41;3618472;39;20063;-64
2023/08/09 02:15:06;;;;;;;3.80;2.80;;;;;;;15.03;97.22;101057.88;3613162;39;20047;-65
2023/08/09 02:17:32;;;;;;;2.80;2.60;;;;;;;15.00;96.88;101058.09;3612150;39;20050;-65
2023/08/09 02:19:58;;;;;;;2.97;2.70;;;;;;;14.95;97.11;101064.84;3616534;39;20078;-64
2023/08/09 02:22:25;;;;;;;3.20;2.90;;;;;;;14.91;96.89;101069.63;3612405;39;20042;-65
2023/08/09 02:24:51;;;;;;;3.17;2.92;;;;;;;14.88;97.03;101069.88;3615156;39;20378;-65
2023/08/09 02:27:17;;;;;;;4.28;3.03;;;;;;;14.83;97.62;101062.06;3615595;39;20051;-65
2023/08/09 02:29:43;;;;;;;3.60;3.25;;;;;;;14.64;97.88;101029.28;3612352;39;20465;-65
2023/08/09 02:32:08;;;;;;;4.15;3.75;;;;;;;14.84;97.44;101062.94;3612552;39;20095;-65
2023/08/09 02:34:34;;;;;;;4.18;3.40;;;;;;;14.68;97.28;101044.28;3608800;39;20062;-65
2023/08/09 02:37:00;;;;;;;4.28;3.88;;;;;;;14.77;96.97;101073.38;3617012;39;20050;-65
2023/08/09 02:39:26;;;;;;;4.25;3.85;;;;;;;14.74;97.13;101079.00;3614318;39;20062;-65
2023/08/09 02:41:51;;;;;;;4.22;3.60;;;;;;;14.71;96.89;101083.78;3616368;39;20169;-65
2023/08/09 02:44:18;;;;;;;4.63;3.55;;;;;;;14.68;97.06;101084.03;3614549;39;20070;-65
2023/08/09 02:46:43;;;;;;;4.18;3.58;;;;;;;14.56;97.65;101065.03;3612947;39;20046;-65
2023/08/09 02:49:09;;;;;;;4.53;3.92;;;;;;;14.64;97.79;101080.69;3612862;39;20751;-65
2023/08/09 02:51:35;;;;;;;4.18;3.80;;;;;;;14.61;97.40;101079.06;3614428;39;20106;-65
2023/08/09 02:54:06;;;;;;;4.20;3.60;;;;;;;14.61;97.22;101094.44;3620547;39;20053;-66
2023/08/09 02:56:33;;;;;;;5.15;4.20;;;;;;;14.58;97.72;101090.13;3613571;39;20047;-66
2023/08/09 02:59:00;;;;;;;4.25;3.95;;;;;;;14.57;98.15;101096.50;3613448;39;20054;-66
2023/08/09 03:01:26;;;;;;;4.50;4.10;;;;;;;14.56;98.14;101102.91;3612783;39;20410;-65
2023/08/09 03:03:54;;;;;;;4.00;3.70;;;;;;;14.55;97.78;101094.91;3613834;39;20059;-66
2023/08/09 03:06:22;;;;;;;3.67;3.28;;;;;;;14.55;98.41;101100.31;3612479;39;20147;-65
2023/08/09 03:08:52;;;;;;;6.32;3.90;;;;;;;14.53;97.77;101103.13;3614866;39;20058;-66
2023/08/09 03:11:22;;;;;;;4.65;3.83;;;;;;;14.52;97.61;101112.22;3612979;39;20042;-65
2023/08/09 03:13:47;;;;;;;3.95;3.55;;;;;;;14.43;97.27;101093.94;3613429;39;20371;-66
2023/08/09 03:16:13;;;;;;;3.72;3.42;;;;;;;14.42;97.15;101100.31;3612760;39;20050;-66
2023/08/09 03:18:42;;;;;;;3.85;3.50;;;;;;;14.37;97.14;101099.81;3612956;39;20305;-66
2023/08/09 03:21:08;;;;;;;3.60;3.30;;;;;;;14.35;96.77;101099.03;3613066;39;20059;-66
2023/08/09 03:23:35;;;;;;;4.03;3.60;;;;;;;14.43;97.46;101112.00;3616625;39;20093;-66
2023/08/09 03:26:02;;;;;;;5.13;3.25;;;;;;;14.39;96.67;101111.34;3612373;39;20091;-66
2023/08/09 03:28:28;;;;;;;5.88;3.80;;;;;;;14.37;96.79;101113.34;3611027;39;20054;-66
2023/08/09 03:30:54;;;;;;;3.80;3.58;;;;;;;14.37;97.61;101113.34;3613101;39;20053;-65
2023/08/09 03:33:19;;;;;;;4.88;3.90;;;;;;;14.35;97.86;101115.28;3614922;39;20316;-66
2023/08/09 03:35:45;;;;;;;3.97;3.58;;;;;;;14.35;98.49;101113.44;3614938;39;20054;-66
2023/08/09 03:38:11;;;;;;;4.20;3.85;;;;;;;14.36;98.33;101120.56;3613098;39;20049;-66
2023/08/09 03:40:39;;;;;;;3.95;3.53;;;;;;;14.16;97.98;101100.38;3612682;39;20063;-66
2023/08/09 03:43:05;;;;;;;4.28;3.88;;;;;;;14.32;98.17;101127.19;3615933;39;20074;-66
2023/08/09 03:45:31;;;;;;;3.80;3.50;;;;;;;14.32;97.64;101131.72;3614645;39;20070;-66
2023/08/09 03:47:57;;;;;;;4.32;4.00;;;;;;;14.31;97.99;101135.41;3612765;39;20155;-67
2023/08/09 03:50:23;;;;;;;4.55;3.60;;;;;;;14.29;97.87;101137.34;3612184;39;20385;-66
2023/08/09 03:52:49;;;;;;;4.07;3.67;;;;;;;13.79;97.66;101058.06;3613549;39;20119;-66
2023/08/09 03:55:15;;;;;;;4.18;3.88;;;;;;;14.26;97.66;101143.84;3616995;39;20061;-66
2023/08/09 03:57:41;;;;;;;4.10;3.80;;;;;;;14.13;98.27;101114.13;3613918;39;20120;-66
2023/08/09 04:00:13;;;;;;;4.45;4.15;;;;;;;14.26;97.66;101149.25;3614585;39;20107;-66
2023/08/09 04:02:39;;;;;;;4.10;3.80;;;;;;;14.23;97.74;101143.19;3606596;39;20065;-66
2023/08/09 04:05:05;;;;;;;4.07;3.70;;;;;;;14.22;97.41;101152.31;3612496;39;20051;-66
2023/08/09 04:07:31;;;;;;;4.65;4.25;;;;;;;14.21;97.23;101155.97;3613663;39;20350;-66
2023/08/09 04:09:57;;;;;;;5.03;4.25;;;;;;;14.19;97.55;101152.53;3606227;39;20075;-66
2023/08/09 04:12:22;;;;;;;5.68;4.22;;;;;;;14.15;96.83;101152.75;3614380;39;20047;-66
2023/08/09 04:14:48;;;;;;;4.90;4.40;;;;;;;14.15;97.60;101155.44;3618525;39;20069;-66
2023/08/09 04:17:14;;;;;;;4.68;4.28;;;;;;;14.13;97.49;101162.78;3613189;39;20050;-66
2023/08/09 04:19:40;;;;;;;4.70;4.30;;;;;;;14.12;97.53;101166.47;3613293;39;20116;-66
2023/08/09 04:22:05;;;;;;;4.55;4.25;;;;;;;14.12;96.85;101166.47;3612618;39;20063;-67
2023/08/09 04:24:31;;;;;;;4.25;3.90;;;;;;;14.11;97.15;101175.56;3613379;39;20281;-66
2023/08/09 04:26:57;;;;;;;4.60;4.20;;;;;;;14.05;97.18;101162.50;3612299;39;20051;-66
2023/08/09 04:29:22;;;;;;;4.82;4.43;;;;;;;14.10;97.08;101173.81;3611319;39;20047;-67
2023/08/09 04:31:48;;;;;;;4.38;4.07;;;;;;;14.11;97.41;101170.16;3613935;39;20258;-66
2023/08/09 04:34:13;;;;;;;5.38;4.50;;;;;;;14.13;97.20;101173.59;3600705;39;20047;-67
2023/08/09 04:36:39;;;;;;;4.80;4.40;;;;;;;14.14;97.91;101180.75;3612560;39;20131;-67
2023/08/09 04:39:09;;;;;;;4.80;4.40;;;;;;;14.15;97.97;101179.78;3614976;39;20070;-67
2023/08/09 04:41:35;;;;;;;5.30;4.80;;;;;;;14.19;97.71;101176.84;3614302;39;20046;-67
2023/08/09 04:44:01;;;;;;;5.22;4.75;;;;;;;14.21;98.26;101183.00;3603743;39;20293;-67
2023/08/09 04:46:27;;;;;;;5.32;4.93;;;;;;;14.22;98.05;101180.19;3613413;39;20047;-67
2023/08/09 04:48:53;;;;;;;5.07;4.68;;;;;;;14.27;98.89;101187.97;3611210;39;20066;-67
2023/08/09 04:51:18;;;;;;;4.82;4.43;;;;;;;14.28;98.38;101189.72;3614538;39;20062;-66
2023/08/09 04:53:44;;;;;;;4.78;4.43;;;;;;;14.31;98.64;101178.69;3613492;39;20043;-67
2023/08/09 04:56:10;;;;;;;5.10;4.63;;;;;;;14.34;98.96;101189.28;3612249;39;20327;-67
2023/08/09 04:58:37;;;;;;;5.60;5.10;;;;;;;14.35;98.50;101188.28;3614184;39;20054;-66
2023/08/09 05:01:04;;;;;;;6.07;5.53;;;;;;;14.37;98.24;101189.06;3613078;39;20047;-67
2023/08/09 05:03:29;;;;;;;6.22;5.72;;;;;;;14.36;99.21;101185.47;3612281;39;20046;-67
2023/08/09 05:05:55;;;;;;;7.07;6.47;;;;;;;14.42;98.91;101191.41;3616107;39;20058;-67
2023/08/09 05:08:21;;;;;;;6.63;6.05;;;;;;;14.44;98.73;101200.31;3616455;39;20054;-67
2023/08/09 05:10:46;;;;;;;7.00;6.40;;;;;;;14.46;98.91;101204.63;3615572;39;20050;-67
2023/08/09 05:13:12;;;;;;;7.53;6.82;;;;;;;14.51;99.28;101199.78;3612918;39;20066;-67
2023/08/09 05:15:38;;;;;;;7.43;6.82;;;;;;;14.55;99.65;101203.97;3613483;39;20067;-67
2023/08/09 05:18:04;;;;;;;7.03;6.43;;;;;;;14.60;99.96;101200.94;3614761;39;20098;-67
2023/08/09 05:20:30;;;;;;;8.13;7.35;;;;;;;14.67;99.66;101207.63;3615552;39;20377;-67
2023/08/09 05:22:55;;;;;;;10.68;9.15;;;;;;;14.72;99.56;101207.31;3613709;39;20059;-67
2023/08/09 05:25:21;;;;;;;10.77;9.68;;;;;;;14.75;99.28;101213.38;3615076;39;20091;-66
2023/08/09 05:27:48;;;;;;;11.00;9.85;;;;;;;14.79;98.90;101208.59;3613443;39;20058;-67
2023/08/09 05:30:19;;;;;;;10.57;9.48;;;;;;;14.83;99.14;101212.78;3619619;39;20054;-67
2023/08/09 05:32:45;;;;;;;11.35;10.15;;;;;;;14.90;98.92;101229.44;3615107;39;21292;-67
2023/08/09 05:35:10;;;;;;;11.57;10.13;;;;;;;14.77;99.36;101189.75;3613373;39;20385;-67
2023/08/09 05:37:37;;;;;;;13.32;10.65;;;;;;;14.99;99.03;101223.34;3613051;39;20067;-67
2023/08/09 05:40:10;;;;;;;12.57;10.55;;;;;;;15.01;99.39;101227.69;3614491;39;20059;-67
2023/08/09 05:42:36;;;;;;;12.68;10.40;;;;;;;15.04;99.18;101227.44;3616073;39;20046;-67
2023/08/09 05:45:03;;;;;;;16.02;13.30;;;;;;;15.07;98.71;101218.25;3614098;39;20065;-66
2023/08/09 05:47:29;;;;;;;13.02;11.68;;;;;;;15.11;98.44;101216.16;3615189;39;20369;-66
2023/08/09 05:49:55;;;;;;;12.45;11.15;;;;;;;15.11;98.44;101205.34;3616529;39;20097;-67
2023/08/09 05:52:20;;;;;;;12.02;10.55;;;;;;;15.18;98.10;101220.13;3615178;39;20057;-67
2023/08/09 05:54:46;;;;;;;13.18;11.25;;;;;;;15.23;98.72;101229.66;3614965;39;20059;-67
2023/08/09 05:57:12;;;;;;;15.07;12.70;;;;;;;15.28;98.27;101234.72;3615977;39;20054;-66
2023/08/09 05:59:39;;;;;;;15.18;13.13;;;;;;;15.25;98.46;101226.81;3615370;39;20094;-67
2023/08/09 06:02:06;;;;;;;15.00;13.40;;;;;;;15.22;98.77;101218.91;3612516;39;20063;-67
2023/08/09 06:04:33;;;;;;;15.02;13.43;;;;;;;15.30;98.21;101236.31;3617152;39;20106;-67
2023/08/09 06:06:59;;;;;;;16.10;14.00;;;;;;;15.33;98.63;101237.94;3616734;39;20050;-66
2023/08/09 06:09:25;;;;;;;15.90;14.18;;;;;;;15.38;98.62;101252.03;3615309;39;20305;-66
2023/08/09 06:11:51;;;;;;;16.73;14.63;;;;;;;15.36;97.66;101248.56;3615411;39;20054;-67
2023/08/09 06:14:17;;;;;;;16.27;14.48;;;;;;;15.38;98.40;101252.03;3616062;39;20086;-66
2023/08/09 06:16:45;;;;;;;18.13;15.27;;;;;;;15.36;97.60;101253.13;3613623;39;20054;-66
2023/08/09 06:19:12;;;;;;;16.63;14.18;;;;;;;15.41;98.05;101267.16;3614699;39;20111;-67
2023/08/09 06:21:38;;;;;;;17.65;15.75;;;;;;;15.18;97.00;101244.50;3612355;39;20086;-66
2023/08/09 06:24:05;;;;;;;17.35;15.52;;;;;;;15.35;97.40;101279.34;3614064;39;20093;-67
2023/08/09 06:26:32;;;;;;;18.20;16.23;;;;;;;15.35;98.14;101289.28;3615491;39;20074;-67
2023/08/09 06:28:58;;;;;;;17.98;15.75;;;;;;;15.38;98.16;101289.94;3613978;39;20067;-66
2023/08/09 06:31:24;;;;;;;19.35;17.08;;;;;;;15.40;98.53;101290.69;3614851;39;20058;-66
2023/08/09 06:33:50;;;;;;;19.15;16.38;;;;;;;15.47;99.35;101291.94;3613254;39;20393;-67
2023/08/09 06:36:15;;;;;;;21.02;16.33;;;;;;;15.52;99.86;101278.94;3617304;39;20098;-67
2023/08/09 06:38:41;;;;;;;20.23;16.23;;;;;;;15.59;99.18;101281.16;3617569;39;20330;-66
2023/08/09 06:41:07;;;;;;;17.85;15.52;;;;;;;15.62;97.96;101283.66;3612368;39;20074;-66
2023/08/09 06:43:33;;;;;;;18.20;14.80;;;;;;;15.67;97.78;101289.63;3612737;39;20325;-66
2023/08/09 06:46:00;;;;;;;20.13;15.00;;;;;;;15.70;97.56;101292.13;3616280;39;20082;-66
2023/08/09 06:48:29;;;;;;;18.98;15.48;;;;;;;15.76;97.82;101294.31;3614056;39;20062;-66
2023/08/09 06:50:58;;;;;;;19.30;15.18;;;;;;;15.71;98.62;101280.28;3614015;39;20042;-66
2023/08/09 06:53:23;;;;;;;19.70;15.65;;;;;;;15.90;98.86;101304.13;3613447;39;20128;-66
2023/08/09 06:55:50;;;;;;;21.80;14.60;;;;;;;15.94;97.33;101300.19;3613983;39;20067;-66
2023/08/09 06:58:16;;;;;;;21.05;17.08;;;;;;;16.01;98.85;101309.59;3606886;39;20047;-66
2023/08/09 07:00:42;;;;;;;18.90;16.02;;;;;;;16.06;97.85;101309.25;3619297;39;20407;-66
2023/08/09 07:03:07;;;;;;;16.75;14.95;;;;;;;16.11;97.87;101313.34;3616363;39;20057;-66
2023/08/09 07:05:33;;;;;;;16.10;13.98;;;;;;;16.18;97.09;101327.28;3622049;39;20138;-66
2023/08/09 07:07:59;;;;;;;15.70;13.85;;;;;;;16.27;97.81;101326.56;3615553;39;20417;-66
2023/08/09 07:10:25;;;;;;;16.55;14.27;;;;;;;16.38;97.50;101329.28;3614782;39;20115;-66
2023/08/09 07:12:51;;;;;;;14.93;13.38;;;;;;;16.44;96.35;101327.97;3616653;39;20065;-66
2023/08/09 07:15:16;;;;;;;14.90;13.30;;;;;;;16.47;95.40;101320.44;3612497;39;20063;-66
2023/08/09 07:17:42;;;;;;;14.77;13.20;;;;;;;16.50;94.51;101321.19;3616114;39;20102;-66
2023/08/09 07:20:12;;;;;;;16.20;14.50;;;;;;;16.57;95.63;101331.44;3614223;39;20080;-66
2023/08/09 07:22:45;;;;;;;16.83;15.02;;;;;;;16.66;96.22;101332.56;3614762;39;20054;-65
2023/08/09 07:25:13;;;;;;;18.15;14.45;;;;;;;16.60;96.21;101308.63;3615234;39;20055;-65
2023/08/09 07:27:43;;;;;;;16.67;14.88;;;;;;;16.72;95.30;101318.50;3615616;39;20392;-65
2023/08/09 07:30:10;;;;;;;16.15;14.48;;;;;;;16.90;94.65;101336.06;3615645;39;20063;-66
2023/08/09 07:32:38;;;;;;;16.02;14.32;;;;;;;16.88;93.34;101332.59;3603382;39;20043;-66
2023/08/09 07:35:06;;;;;;;15.80;14.20;;;;;;;16.92;93.91;101336.78;3606928;39;20389;-66
2023/08/09 07:37:35;;;;;;;16.58;14.88;;;;;;;16.97;93.45;101340.97;3616728;39;20089;-66
2023/08/09 07:40:04;;;;;;;16.02;14.40;;;;;;;17.01;92.94;101339.75;3611558;39;20093;-66
2023/08/09 07:42:29;;;;;;;16.17;14.48;;;;;;;17.08;93.23;101343.69;3613973;39;20083;-66
2023/08/09 07:44:55;;;;;;;15.48;13.60;;;;;;;17.17;92.19;101349.25;3611661;39;20066;-66
2023/08/09 07:47:21;;;;;;;15.30;13.65;;;;;;;17.25;93.08;101356.75;3614605;39;20055;-65
2023/08/09 07:49:46;;;;;;;16.83;12.65;;;;;;;17.24;89.81;101352.34;3614022;39;20070;-65
2023/08/09 07:52:12;;;;;;;16.60;13.40;;;;;;;17.36;91.24;101353.19;3611142;39;20378;-66
2023/08/09 07:54:38;;;;;;;12.98;11.68;;;;;;;17.39;90.66;101353.78;3616469;39;20046;-65
2023/08/09 07:57:04;;;;;;;12.98;11.65;;;;;;;17.47;90.75;101363.16;3613972;39;20071;-65
2023/08/09 07:59:29;;;;;;;12.75;11.55;;;;;;;17.53;90.02;101365.38;3616934;39;20087;-66
2023/08/09 08:01:55;;;;;;;14.00;12.60;;;;;;;17.62;90.56;101359.19;3611410;39;20109;-65
2023/08/09 08:04:20;;;;;;;13.18;11.82;;;;;;;17.67;90.42;101356.97;3616532;39;20062;-65
2023/08/09 08:06:48;;;;;;;13.30;12.00;;;;;;;17.79;90.72;101368.69;3614130;39;20053;-65
2023/08/09 08:09:14;;;;;;;12.68;11.48;;;;;;;17.87;90.47;101374.34;3613006;39;20070;-65
2023/08/09 08:11:40;;;;;;;12.15;10.93;;;;;;;17.90;88.57;101367.78;3612204;39;20094;-65
2023/08/09 08:14:08;;;;;;;11.25;10.07;;;;;;;17.92;88.02;101368.50;3613606;39;20070;-66
2023/08/09 08:16:34;;;;;;;12.25;11.07;;;;;;;17.91;87.02;101372.22;3612233;39;20043;-65
2023/08/09 08:19:00;;;;;;;11.48;10.38;;;;;;;17.95;87.05;101373.69;3615864;39;20139;-66
2023/08/09 08:21:26;;;;;;;12.00;10.70;;;;;;;18.01;86.88;101378.63;3615263;39;20051;-65
2023/08/09 08:23:53;;;;;;;11.23;10.20;;;;;;;18.01;85.41;101381.34;3616188;39;20089;-66
2023/08/09 08:26:18;;;;;;;12.30;11.07;;;;;;;18.10;85.79;101375.13;3614698;39;20050;-66
2023/08/09 08:28:46;;;;;;;11.10;9.95;;;;;;;18.14;87.18;101360.28;3615496;39;20065;-65
2023/08/09 08:31:12;;;;;;;11.35;10.15;;;;;;;18.58;89.11;101380.06;3611713;39;20051;-65
2023/08/09 08:33:44;;;;;;;10.25;9.25;;;;;;;18.81;84.53;101386.28;3615876;39;20065;-65
2023/08/09 08:36:10;;;;;;;9.85;8.95;;;;;;;18.79;83.93;101380.09;3613765;39;20394;-66
2023/08/09 08:38:35;;;;;;;9.45;8.63;;;;;;;18.91;82.93;101395.38;3615591;39;20054;-66
2023/08/09 08:41:01;;;;;;;11.07;8.80;;;;;;;18.93;82.72;101389.75;3616021;39;20071;-65
2023/08/09 08:43:27;;;;;;;9.30;8.38;;;;;;;19.07;82.29;101392.16;3615114;39;20067;-65
2023/08/09 08:45:55;;;;;;;9.32;8.43;;;;;;;19.25;83.25;101398.69;3615999;39;20425;-65
2023/08/09 08:48:21;;;;;;;9.70;8.73;;;;;;;19.40;81.58;101398.28;3619111;39;20119;-65
2023/08/09 08:50:48;;;;;;;9.02;8.20;;;;;;;19.52;81.17;101405.38;3613578;39;20053;-66
2023/08/09 08:53:15;;;;;;;9.18;8.02;;;;;;;19.63;78.48;101410.72;3612828;39;20110;-68
2023/08/09 08:55:41;;;;;;;8.43;7.63;;;;;;;19.71;77.31;101413.63;3614479;39;20420;-65
2023/08/09 08:58:08;;;;;;;8.27;7.47;;;;;;;19.86;76.19;101410.53;3613164;39;20104;-65
2023/08/09 09:00:36;;;;;;;9.40;7.47;;;;;;;20.00;75.89;101417.44;3615375;39;20063;-66
2023/08/09 09:03:01;;;;;;;8.38;7.47;;;;;;;19.98;76.22;101412.13;3615067;39;20066;-65
2023/08/09 09:05:27;;;;;;;8.30;7.50;;;;;;;20.14;76.82;101420.63;3613663;39;20054;-65
2023/08/09 09:07:56;;;;;;;8.88;7.20;;;;;;;20.09;75.54;101394.75;3614004;39;20288;-66
2023/08/09 09:10:23;;;;;;;9.15;8.13;;;;;;;20.37;73.45;101425.78;3612800;39;20057;-64
2023/08/09 09:12:57;;;;;;;8.45;7.57;;;;;;;20.36;72.82;101424.03;3617825;39;20712;-64
2023/08/09 09:15:24;;;;;;;8.57;7.50;;;;;;;20.24;73.83;101426.06;3607883;39;20050;-64
2023/08/09 09:17:51;;;;;;;8.93;7.60;;;;;;;20.30;73.52;101424.66;3615116;39;20055;-64
2023/08/09 09:20:29;;;;;;;9.23;7.63;;;;;;;20.23;71.28;101412.56;3613902;39;20050;-64
2023/08/09 09:22:56;;;;;;;8.98;7.65;;;;;;;20.27;72.32;101382.09;3613756;39;20051;-64
2023/08/09 09:25:23;;;;;;;9.15;7.25;;;;;;;20.65;72.84;101429.53;3615676;39;20481;-64
2023/08/09 09:27:54;;;;;;;7.93;7.13;;;;;;;20.74;70.39;101425.94;3616923;39;20282;-64
2023/08/09 09:30:24;;;;;;;8.57;7.78;;;;;;;20.68;71.24;101415.59;3613154;39;20069;-64
2023/08/09 09:32:51;;;;;;;8.70;7.18;;;;;;;20.97;70.11;101442.84;3611992;39;20462;-65
2023/08/09 09:35:28;;;;;;;7.78;6.93;;;;;;;21.07;66.45;101408.16;3615542;39;20047;-64
2023/08/09 09:37:58;;;;;;;8.85;6.93;;;;;;;21.50;65.99;101447.75;3612486;39;20050;-64
2023/08/09 09:40:36;;;;;;;8.68;7.45;;;;;;;21.38;65.14;101448.97;3613860;39;20059;-64
2023/08/09 09:43:04;;;;;;;8.70;7.05;;;;;;;21.58;66.72;101446.13;3614768;39;20070;-64
2023/08/09 09:45:31;;;;;;;9.18;7.03;;;;;;;21.87;67.04;101438.59;3614597;39;20282;-64
2023/08/09 09:48:00;;;;;;;8.68;7.78;;;;;;;21.99;65.00;101442.84;3613008;39;20062;-64
2023/08/09 09:50:28;;;;;;;7.70;6.90;;;;;;;22.10;65.24;101438.16;3614972;39;20329;-64
2023/08/09 09:52:55;;;;;;;9.70;6.93;;;;;;;22.30;63.24;101428.84;3612906;39;20085;-64
2023/08/09 09:55:26;;;;;;;7.70;6.90;;;;;;;22.54;61.80;101413.63;3615759;39;20476;-65
2023/08/09 09:57:57;;;;;;;7.78;6.28;;;;;;;22.77;64.96;101403.88;3615922;39;20058;-64
2023/08/09 10:00:31;;;;;;;6.35;5.75;;;;;;;22.99;61.89;101424.44;3615257;39;20298;-64
2023/08/09 10:03:01;;;;;;;7.28;6.45;;;;;;;23.28;61.76;101423.22;3614414;39;20046;-64
2023/08/09 10:05:37;;;;;;;8.90;7.03;;;;;;;23.13;60.23;101425.75;3613161;39;20102;-64
2023/08/09 10:08:10;;;;;;;6.85;6.15;;;;;;;22.99;60.82;101431.81;3615139;39;20111;-64
2023/08/09 10:10:38;;;;;;;7.00;5.90;;;;;;;22.85;60.83;101423.13;3613787;39;20099;-64
2023/08/09 10:13:07;;;;;;;5.50;5.00;;;;;;;22.95;61.08;101423.03;3617432;39;20055;-64
2023/08/09 10:16:02;;;;;;;5.20;4.80;;;;;;;23.22;61.06;101405.56;3615396;39;20139;-65
2023/08/09 10:18:40;;;;;;;5.47;4.95;;;;;;;23.40;58.89;101424.66;3615200;39;20059;-64
2023/08/09 10:21:09;;;;;;;6.03;4.38;;;;;;;23.21;57.56;101423.03;3613041;39;20054;-64
2023/08/09 10:23:35;;;;;;;5.90;4.30;;;;;;;22.97;57.58;101414.66;3614132;39;20055;-64
2023/08/09 10:26:00;;;;;;;6.65;4.30;;;;;;;22.85;59.75;101408.56;3614810;39;20246;-64
2023/08/09 10:28:39;;;;;;;5.95;3.97;;;;;;;23.12;59.82;101433.13;3608780;39;20070;-64
2023/08/09 10:31:05;;;;;;;6.22;4.25;;;;;;;22.97;56.97;101433.88;3614299;39;20087;-64
2023/08/09 10:33:34;;;;;;;6.80;4.90;;;;;;;22.86;58.75;101433.06;3615184;39;20401;-64
2023/08/09 10:36:00;;;;;;;5.03;4.55;;;;;;;22.82;59.77;101431.66;3614723;39;20124;-64
2023/08/09 10:38:31;;;;;;;4.80;4.22;;;;;;;22.84;60.00;101428.78;3615879;39;20296;-64
2023/08/09 10:40:59;;;;;;;3.28;3.00;;;;;;;22.89;56.19;101440.09;3614067;39;20066;-64
2023/08/09 10:43:30;;;;;;;4.22;2.70;;;;;;;22.68;54.59;101435.84;3615299;39;20139;-64
2023/08/09 10:45:56;;;;;;;4.15;3.13;;;;;;;22.60;55.74;101437.66;3613703;39;20053;-64
2023/08/09 10:48:25;;;;;;;3.75;3.25;;;;;;;22.50;57.07;101442.38;3614505;39;20051;-64
2023/08/09 10:51:23;;;;;;;4.70;3.25;;;;;;;22.53;56.50;101434.69;3614432;39;20043;-64
2023/08/09 10:54:12;;;;;;;3.88;2.90;;;;;;;22.55;56.88;101438.16;3615451;39;20066;-64
2023/08/09 10:56:41;;;;;;;5.03;2.80;;;;;;;22.59;57.10;101445.00;3612075;39;20055;-64
2023/08/09 10:59:24;;;;;;;3.47;2.65;;;;;;;22.56;57.83;101444.47;3615918;39;20499;-64
2023/08/09 11:01:53;;;;;;;2.55;2.35;;;;;;;22.52;55.06;101445.78;3613056;39;20062;-64
2023/08/09 11:04:18;;;;;;;2.78;1.90;;;;;;;22.68;54.35;101448.69;3612408;39;20066;-64
2023/08/09 11:06:47;;;;;;;2.40;2.20;;;;;;;23.17;56.43;101444.44;3615945;39;20102;-64
2023/08/09 11:09:18;;;;;;;2.30;2.10;;;;;;;23.32;53.60;101441.97;3612249;39;20054;-64
2023/08/09 11:11:47;;;;;;;3.10;1.88;;;;;;;23.08;53.61;101419.88;3613575;39;20285;-64
2023/08/09 11:14:19;;;;;;;2.15;1.95;;;;;;;23.49;54.08;101433.81;3614718;39;20420;-64
2023/08/09 11:16:47;;;;;;;2.30;2.03;;;;;;;23.60;53.43;101428.03;3614158;39;20055;-64
2023/08/09 11:19:15;;;;;;;3.38;1.77;;;;;;;23.50;51.13;101439.16;3611621;39;20093;-64
2023/08/09 11:21:53;;;;;;;2.05;1.80;;;;;;;23.70;52.00;101445.25;3613972;39;20054;-64
2023/08/09 11:24:24;;;;;;;1.85;1.73;;;;;;;23.75;52.26;101400.81;3612636;39;20047;-64
2023/08/09 11:26:55;;;;;;;3.03;1.90;;;;;;;24.17;50.51;101443.81;3612313;39;20047;-64